<?xml version="1.0" encoding="UTF-8" standalone="no" ?>
<gpx xmlns="http://www.topografix.com/GPX/1/1" xmlns:xsi="http://www.w3.org/2001/XMLSchema-instance" xsi:schemaLocation="http://www.topografix.com/GPX/1/1 http://www.topografix.com/GPX/1/1/gpx.xsd" version="1.1" creator="VisuGPX - https://www.visugpx.com">
  <metadata>
    <name>Autour du col Saint Barnabé</name>
    <desc><![CDATA[Retour vers le col St Barnabé depuis la table d\'orientation en passant à côté des ruines de la ferme brûlée, le ravin du Teillon et le GR4]]></desc>
  </metadata>
  <trk>
    <name><![CDATA[16-SEPT-12 16:21:44]]></name>
    <trkseg>
      <trkpt lat="43.86047" lon="6.58409">
        <ele>1244.08</ele>
        <time>2012-09-16T11:06:46Z</time>
      </trkpt>
      <trkpt lat="43.86047" lon="6.58409">
        <ele>1244.08</ele>
        <time>2012-09-16T11:07:18Z</time>
      </trkpt>
      <trkpt lat="43.86047" lon="6.5841">
        <ele>1244.08</ele>
        <time>2012-09-16T11:07:53Z</time>
      </trkpt>
      <trkpt lat="43.86047" lon="6.58409">
        <ele>1244.08</ele>
        <time>2012-09-16T11:08:27Z</time>
      </trkpt>
      <trkpt lat="43.86046" lon="6.5841">
        <ele>1244.08</ele>
        <time>2012-09-16T11:09:02Z</time>
      </trkpt>
      <trkpt lat="43.86046" lon="6.5841">
        <ele>1244.08</ele>
        <time>2012-09-16T11:09:21Z</time>
      </trkpt>
      <trkpt lat="43.86046" lon="6.5841">
        <ele>1244.08</ele>
        <time>2012-09-16T11:09:51Z</time>
      </trkpt>
      <trkpt lat="43.86047" lon="6.5841">
        <ele>1243.6</ele>
        <time>2012-09-16T11:10:23Z</time>
      </trkpt>
      <trkpt lat="43.86047" lon="6.58409">
        <ele>1243.6</ele>
        <time>2012-09-16T11:10:59Z</time>
      </trkpt>
      <trkpt lat="43.86047" lon="6.58409">
        <ele>1244.08</ele>
        <time>2012-09-16T11:11:31Z</time>
      </trkpt>
      <trkpt lat="43.86047" lon="6.58409">
        <ele>1243.6</ele>
        <time>2012-09-16T11:12:02Z</time>
      </trkpt>
      <trkpt lat="43.86047" lon="6.58409">
        <ele>1243.6</ele>
        <time>2012-09-16T11:12:22Z</time>
      </trkpt>
      <trkpt lat="43.86047" lon="6.58409">
        <ele>1253.7</ele>
        <time>2012-09-16T11:49:54Z</time>
      </trkpt>
      <trkpt lat="43.86045" lon="6.58414">
        <ele>1253.7</ele>
        <time>2012-09-16T11:49:55Z</time>
      </trkpt>
      <trkpt lat="43.86048" lon="6.58412">
        <ele>1253.7</ele>
        <time>2012-09-16T11:50:21Z</time>
      </trkpt>
      <trkpt lat="43.86047" lon="6.5841">
        <ele>1251.29</ele>
        <time>2012-09-16T11:50:38Z</time>
      </trkpt>
      <trkpt lat="43.86053" lon="6.58411">
        <ele>1247.93</ele>
        <time>2012-09-16T11:50:54Z</time>
      </trkpt>
      <trkpt lat="43.86065" lon="6.58411">
        <ele>1245.04</ele>
        <time>2012-09-16T11:51:09Z</time>
      </trkpt>
      <trkpt lat="43.86076" lon="6.58409">
        <ele>1242.64</ele>
        <time>2012-09-16T11:51:25Z</time>
      </trkpt>
      <trkpt lat="43.86077" lon="6.58399">
        <ele>1239.28</ele>
        <time>2012-09-16T11:51:38Z</time>
      </trkpt>
      <trkpt lat="43.86074" lon="6.58396">
        <ele>1237.35</ele>
        <time>2012-09-16T11:51:46Z</time>
      </trkpt>
      <trkpt lat="43.86059" lon="6.58393">
        <ele>1236.39</ele>
        <time>2012-09-16T11:52:03Z</time>
      </trkpt>
      <trkpt lat="43.86048" lon="6.58389">
        <ele>1236.39</ele>
        <time>2012-09-16T11:52:17Z</time>
      </trkpt>
      <trkpt lat="43.86037" lon="6.58384">
        <ele>1235.91</ele>
        <time>2012-09-16T11:52:32Z</time>
      </trkpt>
      <trkpt lat="43.86027" lon="6.58378">
        <ele>1235.43</ele>
        <time>2012-09-16T11:52:48Z</time>
      </trkpt>
      <trkpt lat="43.86023" lon="6.58375">
        <ele>1234.95</ele>
        <time>2012-09-16T11:52:53Z</time>
      </trkpt>
      <trkpt lat="43.86008" lon="6.58369">
        <ele>1234.47</ele>
        <time>2012-09-16T11:53:11Z</time>
      </trkpt>
      <trkpt lat="43.85994" lon="6.58363">
        <ele>1233.99</ele>
        <time>2012-09-16T11:53:28Z</time>
      </trkpt>
      <trkpt lat="43.85984" lon="6.58359">
        <ele>1233.51</ele>
        <time>2012-09-16T11:53:42Z</time>
      </trkpt>
      <trkpt lat="43.85975" lon="6.58354">
        <ele>1233.51</ele>
        <time>2012-09-16T11:53:59Z</time>
      </trkpt>
      <trkpt lat="43.85967" lon="6.58347">
        <ele>1232.07</ele>
        <time>2012-09-16T11:54:12Z</time>
      </trkpt>
      <trkpt lat="43.85959" lon="6.58339">
        <ele>1231.59</ele>
        <time>2012-09-16T11:54:26Z</time>
      </trkpt>
      <trkpt lat="43.85949" lon="6.58332">
        <ele>1228.22</ele>
        <time>2012-09-16T11:54:42Z</time>
      </trkpt>
      <trkpt lat="43.85937" lon="6.58326">
        <ele>1227.26</ele>
        <time>2012-09-16T11:54:57Z</time>
      </trkpt>
      <trkpt lat="43.85928" lon="6.5832">
        <ele>1224.86</ele>
        <time>2012-09-16T11:55:11Z</time>
      </trkpt>
      <trkpt lat="43.85923" lon="6.58313">
        <ele>1221.97</ele>
        <time>2012-09-16T11:55:25Z</time>
      </trkpt>
      <trkpt lat="43.85917" lon="6.58303">
        <ele>1221.01</ele>
        <time>2012-09-16T11:55:39Z</time>
      </trkpt>
      <trkpt lat="43.85907" lon="6.58294">
        <ele>1219.09</ele>
        <time>2012-09-16T11:55:55Z</time>
      </trkpt>
      <trkpt lat="43.85898" lon="6.58289">
        <ele>1217.65</ele>
        <time>2012-09-16T11:56:10Z</time>
      </trkpt>
      <trkpt lat="43.85892" lon="6.58276">
        <ele>1215.24</ele>
        <time>2012-09-16T11:56:26Z</time>
      </trkpt>
      <trkpt lat="43.85884" lon="6.58267">
        <ele>1214.28</ele>
        <time>2012-09-16T11:56:41Z</time>
      </trkpt>
      <trkpt lat="43.8588" lon="6.58258">
        <ele>1212.84</ele>
        <time>2012-09-16T11:56:55Z</time>
      </trkpt>
      <trkpt lat="43.85871" lon="6.5825">
        <ele>1210.92</ele>
        <time>2012-09-16T11:57:08Z</time>
      </trkpt>
      <trkpt lat="43.85861" lon="6.58245">
        <ele>1209</ele>
        <time>2012-09-16T11:57:25Z</time>
      </trkpt>
      <trkpt lat="43.85854" lon="6.58237">
        <ele>1207.55</ele>
        <time>2012-09-16T11:57:37Z</time>
      </trkpt>
      <trkpt lat="43.8585" lon="6.58232">
        <ele>1207.07</ele>
        <time>2012-09-16T11:57:52Z</time>
      </trkpt>
      <trkpt lat="43.85846" lon="6.58223">
        <ele>1205.63</ele>
        <time>2012-09-16T11:58:07Z</time>
      </trkpt>
      <trkpt lat="43.85843" lon="6.58218">
        <ele>1204.67</ele>
        <time>2012-09-16T11:58:22Z</time>
      </trkpt>
      <trkpt lat="43.85837" lon="6.58211">
        <ele>1203.23</ele>
        <time>2012-09-16T11:58:36Z</time>
      </trkpt>
      <trkpt lat="43.85833" lon="6.58211">
        <ele>1201.3</ele>
        <time>2012-09-16T11:58:48Z</time>
      </trkpt>
      <trkpt lat="43.85828" lon="6.5821">
        <ele>1200.34</ele>
        <time>2012-09-16T11:59:01Z</time>
      </trkpt>
      <trkpt lat="43.85829" lon="6.58215">
        <ele>1199.86</ele>
        <time>2012-09-16T11:59:07Z</time>
      </trkpt>
      <trkpt lat="43.85826" lon="6.58231">
        <ele>1198.42</ele>
        <time>2012-09-16T11:59:25Z</time>
      </trkpt>
      <trkpt lat="43.85822" lon="6.58244">
        <ele>1196.02</ele>
        <time>2012-09-16T11:59:42Z</time>
      </trkpt>
      <trkpt lat="43.85821" lon="6.58261">
        <ele>1193.61</ele>
        <time>2012-09-16T11:59:59Z</time>
      </trkpt>
      <trkpt lat="43.85822" lon="6.58275">
        <ele>1191.21</ele>
        <time>2012-09-16T12:00:17Z</time>
      </trkpt>
      <trkpt lat="43.85817" lon="6.58278">
        <ele>1188.81</ele>
        <time>2012-09-16T12:00:30Z</time>
      </trkpt>
      <trkpt lat="43.85814" lon="6.58289">
        <ele>1186.88</ele>
        <time>2012-09-16T12:00:45Z</time>
      </trkpt>
      <trkpt lat="43.85813" lon="6.583">
        <ele>1185.92</ele>
        <time>2012-09-16T12:01:01Z</time>
      </trkpt>
      <trkpt lat="43.85811" lon="6.58315">
        <ele>1184.48</ele>
        <time>2012-09-16T12:01:17Z</time>
      </trkpt>
      <trkpt lat="43.85808" lon="6.58314">
        <ele>1182.56</ele>
        <time>2012-09-16T12:01:31Z</time>
      </trkpt>
      <trkpt lat="43.85802" lon="6.58303">
        <ele>1180.16</ele>
        <time>2012-09-16T12:01:46Z</time>
      </trkpt>
      <trkpt lat="43.85798" lon="6.58295">
        <ele>1179.67</ele>
        <time>2012-09-16T12:02:01Z</time>
      </trkpt>
      <trkpt lat="43.85795" lon="6.58293">
        <ele>1178.23</ele>
        <time>2012-09-16T12:02:16Z</time>
      </trkpt>
      <trkpt lat="43.8579" lon="6.58295">
        <ele>1175.83</ele>
        <time>2012-09-16T12:02:32Z</time>
      </trkpt>
      <trkpt lat="43.85785" lon="6.58285">
        <ele>1174.87</ele>
        <time>2012-09-16T12:02:47Z</time>
      </trkpt>
      <trkpt lat="43.85781" lon="6.58274">
        <ele>1173.91</ele>
        <time>2012-09-16T12:03:00Z</time>
      </trkpt>
      <trkpt lat="43.85777" lon="6.58263">
        <ele>1172.47</ele>
        <time>2012-09-16T12:03:15Z</time>
      </trkpt>
      <trkpt lat="43.85771" lon="6.58259">
        <ele>1170.06</ele>
        <time>2012-09-16T12:03:30Z</time>
      </trkpt>
      <trkpt lat="43.85763" lon="6.5825">
        <ele>1167.66</ele>
        <time>2012-09-16T12:03:48Z</time>
      </trkpt>
      <trkpt lat="43.85756" lon="6.58242">
        <ele>1164.77</ele>
        <time>2012-09-16T12:04:04Z</time>
      </trkpt>
      <trkpt lat="43.85748" lon="6.58238">
        <ele>1161.89</ele>
        <time>2012-09-16T12:04:19Z</time>
      </trkpt>
      <trkpt lat="43.85743" lon="6.58224">
        <ele>1160.93</ele>
        <time>2012-09-16T12:04:35Z</time>
      </trkpt>
      <trkpt lat="43.85736" lon="6.58209">
        <ele>1159.49</ele>
        <time>2012-09-16T12:04:53Z</time>
      </trkpt>
      <trkpt lat="43.8573" lon="6.58204">
        <ele>1158.05</ele>
        <time>2012-09-16T12:05:10Z</time>
      </trkpt>
      <trkpt lat="43.85723" lon="6.58206">
        <ele>1156.12</ele>
        <time>2012-09-16T12:05:24Z</time>
      </trkpt>
      <trkpt lat="43.85718" lon="6.58202">
        <ele>1155.64</ele>
        <time>2012-09-16T12:05:39Z</time>
      </trkpt>
      <trkpt lat="43.85713" lon="6.58203">
        <ele>1154.68</ele>
        <time>2012-09-16T12:05:57Z</time>
      </trkpt>
      <trkpt lat="43.85703" lon="6.58201">
        <ele>1153.72</ele>
        <time>2012-09-16T12:06:13Z</time>
      </trkpt>
      <trkpt lat="43.85702" lon="6.58201">
        <ele>1154.2</ele>
        <time>2012-09-16T12:06:31Z</time>
      </trkpt>
      <trkpt lat="43.85697" lon="6.58198">
        <ele>1153.24</ele>
        <time>2012-09-16T12:06:57Z</time>
      </trkpt>
      <trkpt lat="43.85696" lon="6.58184">
        <ele>1151.8</ele>
        <time>2012-09-16T12:07:12Z</time>
      </trkpt>
      <trkpt lat="43.85696" lon="6.58186">
        <ele>1151.8</ele>
        <time>2012-09-16T12:07:28Z</time>
      </trkpt>
      <trkpt lat="43.85697" lon="6.58186">
        <ele>1151.8</ele>
        <time>2012-09-16T12:07:57Z</time>
      </trkpt>
      <trkpt lat="43.85697" lon="6.58187">
        <ele>1151.32</ele>
        <time>2012-09-16T12:08:15Z</time>
      </trkpt>
      <trkpt lat="43.85699" lon="6.58187">
        <ele>1151.32</ele>
        <time>2012-09-16T12:08:41Z</time>
      </trkpt>
      <trkpt lat="43.85698" lon="6.58188">
        <ele>1151.32</ele>
        <time>2012-09-16T12:09:06Z</time>
      </trkpt>
      <trkpt lat="43.85697" lon="6.58188">
        <ele>1151.8</ele>
        <time>2012-09-16T12:09:41Z</time>
      </trkpt>
      <trkpt lat="43.85697" lon="6.58187">
        <ele>1151.32</ele>
        <time>2012-09-16T12:10:00Z</time>
      </trkpt>
      <trkpt lat="43.85697" lon="6.58187">
        <ele>1151.32</ele>
        <time>2012-09-16T12:10:30Z</time>
      </trkpt>
      <trkpt lat="43.85697" lon="6.58187">
        <ele>1151.32</ele>
        <time>2012-09-16T12:10:56Z</time>
      </trkpt>
      <trkpt lat="43.85697" lon="6.58186">
        <ele>1151.32</ele>
        <time>2012-09-16T12:11:26Z</time>
      </trkpt>
      <trkpt lat="43.85697" lon="6.58186">
        <ele>1151.32</ele>
        <time>2012-09-16T12:11:52Z</time>
      </trkpt>
      <trkpt lat="43.85696" lon="6.58185">
        <ele>1151.32</ele>
        <time>2012-09-16T12:12:19Z</time>
      </trkpt>
      <trkpt lat="43.85696" lon="6.58185">
        <ele>1151.32</ele>
        <time>2012-09-16T12:12:20Z</time>
      </trkpt>
      <trkpt lat="43.85697" lon="6.58186">
        <ele>1151.8</ele>
        <time>2012-09-16T12:12:44Z</time>
      </trkpt>
      <trkpt lat="43.85697" lon="6.58186">
        <ele>1151.8</ele>
        <time>2012-09-16T12:13:08Z</time>
      </trkpt>
      <trkpt lat="43.85697" lon="6.58186">
        <ele>1151.8</ele>
        <time>2012-09-16T12:13:31Z</time>
      </trkpt>
      <trkpt lat="43.85697" lon="6.58186">
        <ele>1151.8</ele>
        <time>2012-09-16T12:14:00Z</time>
      </trkpt>
      <trkpt lat="43.85696" lon="6.58189">
        <ele>1152.28</ele>
        <time>2012-09-16T12:14:16Z</time>
      </trkpt>
      <trkpt lat="43.85695" lon="6.58198">
        <ele>1152.28</ele>
        <time>2012-09-16T12:14:29Z</time>
      </trkpt>
      <trkpt lat="43.85699" lon="6.58213">
        <ele>1153.72</ele>
        <time>2012-09-16T12:14:43Z</time>
      </trkpt>
      <trkpt lat="43.857" lon="6.58217">
        <ele>1153.72</ele>
        <time>2012-09-16T12:14:46Z</time>
      </trkpt>
      <trkpt lat="43.85707" lon="6.58232">
        <ele>1155.16</ele>
        <time>2012-09-16T12:15:01Z</time>
      </trkpt>
      <trkpt lat="43.85708" lon="6.58241">
        <ele>1156.6</ele>
        <time>2012-09-16T12:15:17Z</time>
      </trkpt>
      <trkpt lat="43.8571" lon="6.58247">
        <ele>1157.08</ele>
        <time>2012-09-16T12:15:28Z</time>
      </trkpt>
      <trkpt lat="43.85712" lon="6.58261">
        <ele>1158.53</ele>
        <time>2012-09-16T12:15:42Z</time>
      </trkpt>
      <trkpt lat="43.85713" lon="6.58271">
        <ele>1159.97</ele>
        <time>2012-09-16T12:15:58Z</time>
      </trkpt>
      <trkpt lat="43.85715" lon="6.58276">
        <ele>1160.45</ele>
        <time>2012-09-16T12:16:08Z</time>
      </trkpt>
      <trkpt lat="43.85717" lon="6.58299">
        <ele>1161.89</ele>
        <time>2012-09-16T12:16:25Z</time>
      </trkpt>
      <trkpt lat="43.85724" lon="6.58313">
        <ele>1162.37</ele>
        <time>2012-09-16T12:16:42Z</time>
      </trkpt>
      <trkpt lat="43.85735" lon="6.58328">
        <ele>1163.33</ele>
        <time>2012-09-16T12:17:02Z</time>
      </trkpt>
      <trkpt lat="43.8574" lon="6.58347">
        <ele>1163.81</ele>
        <time>2012-09-16T12:17:20Z</time>
      </trkpt>
      <trkpt lat="43.85743" lon="6.58365">
        <ele>1164.29</ele>
        <time>2012-09-16T12:17:36Z</time>
      </trkpt>
      <trkpt lat="43.85746" lon="6.5838">
        <ele>1164.77</ele>
        <time>2012-09-16T12:17:53Z</time>
      </trkpt>
      <trkpt lat="43.85755" lon="6.58396">
        <ele>1166.22</ele>
        <time>2012-09-16T12:18:11Z</time>
      </trkpt>
      <trkpt lat="43.85762" lon="6.58409">
        <ele>1166.7</ele>
        <time>2012-09-16T12:18:27Z</time>
      </trkpt>
      <trkpt lat="43.85768" lon="6.58423">
        <ele>1168.14</ele>
        <time>2012-09-16T12:18:43Z</time>
      </trkpt>
      <trkpt lat="43.85767" lon="6.58439">
        <ele>1168.62</ele>
        <time>2012-09-16T12:19:03Z</time>
      </trkpt>
      <trkpt lat="43.85764" lon="6.58455">
        <ele>1168.62</ele>
        <time>2012-09-16T12:19:18Z</time>
      </trkpt>
      <trkpt lat="43.85755" lon="6.58464">
        <ele>1168.62</ele>
        <time>2012-09-16T12:19:34Z</time>
      </trkpt>
      <trkpt lat="43.85744" lon="6.58468">
        <ele>1170.54</ele>
        <time>2012-09-16T12:19:53Z</time>
      </trkpt>
      <trkpt lat="43.85732" lon="6.58477">
        <ele>1171.02</ele>
        <time>2012-09-16T12:20:07Z</time>
      </trkpt>
      <trkpt lat="43.85724" lon="6.58485">
        <ele>1170.54</ele>
        <time>2012-09-16T12:20:20Z</time>
      </trkpt>
      <trkpt lat="43.85719" lon="6.58504">
        <ele>1170.54</ele>
        <time>2012-09-16T12:20:38Z</time>
      </trkpt>
      <trkpt lat="43.85713" lon="6.58519">
        <ele>1171.02</ele>
        <time>2012-09-16T12:20:52Z</time>
      </trkpt>
      <trkpt lat="43.8571" lon="6.5853">
        <ele>1171.5</ele>
        <time>2012-09-16T12:21:06Z</time>
      </trkpt>
      <trkpt lat="43.85703" lon="6.58545">
        <ele>1172.47</ele>
        <time>2012-09-16T12:21:20Z</time>
      </trkpt>
      <trkpt lat="43.85696" lon="6.58555">
        <ele>1173.91</ele>
        <time>2012-09-16T12:21:38Z</time>
      </trkpt>
      <trkpt lat="43.85695" lon="6.58556">
        <ele>1173.43</ele>
        <time>2012-09-16T12:22:05Z</time>
      </trkpt>
      <trkpt lat="43.85687" lon="6.58567">
        <ele>1174.87</ele>
        <time>2012-09-16T12:22:21Z</time>
      </trkpt>
      <trkpt lat="43.85676" lon="6.58581">
        <ele>1176.79</ele>
        <time>2012-09-16T12:22:37Z</time>
      </trkpt>
      <trkpt lat="43.85667" lon="6.58592">
        <ele>1178.23</ele>
        <time>2012-09-16T12:22:51Z</time>
      </trkpt>
      <trkpt lat="43.85665" lon="6.58594">
        <ele>1179.19</ele>
        <time>2012-09-16T12:23:09Z</time>
      </trkpt>
      <trkpt lat="43.85664" lon="6.58602">
        <ele>1180.16</ele>
        <time>2012-09-16T12:23:27Z</time>
      </trkpt>
      <trkpt lat="43.85659" lon="6.58621">
        <ele>1182.08</ele>
        <time>2012-09-16T12:23:42Z</time>
      </trkpt>
      <trkpt lat="43.8566" lon="6.58631">
        <ele>1184.96</ele>
        <time>2012-09-16T12:23:59Z</time>
      </trkpt>
      <trkpt lat="43.85664" lon="6.58634">
        <ele>1185.44</ele>
        <time>2012-09-16T12:24:20Z</time>
      </trkpt>
      <trkpt lat="43.85676" lon="6.58649">
        <ele>1187.85</ele>
        <time>2012-09-16T12:24:39Z</time>
      </trkpt>
      <trkpt lat="43.85678" lon="6.58656">
        <ele>1188.81</ele>
        <time>2012-09-16T12:25:07Z</time>
      </trkpt>
      <trkpt lat="43.85675" lon="6.58673">
        <ele>1191.21</ele>
        <time>2012-09-16T12:25:23Z</time>
      </trkpt>
      <trkpt lat="43.85674" lon="6.58686">
        <ele>1194.58</ele>
        <time>2012-09-16T12:25:43Z</time>
      </trkpt>
      <trkpt lat="43.85673" lon="6.5869">
        <ele>1195.06</ele>
        <time>2012-09-16T12:26:04Z</time>
      </trkpt>
      <trkpt lat="43.85674" lon="6.58696">
        <ele>1196.5</ele>
        <time>2012-09-16T12:26:30Z</time>
      </trkpt>
      <trkpt lat="43.85674" lon="6.58711">
        <ele>1198.9</ele>
        <time>2012-09-16T12:26:47Z</time>
      </trkpt>
      <trkpt lat="43.8567" lon="6.58731">
        <ele>1201.79</ele>
        <time>2012-09-16T12:27:02Z</time>
      </trkpt>
      <trkpt lat="43.85668" lon="6.58745">
        <ele>1203.71</ele>
        <time>2012-09-16T12:27:18Z</time>
      </trkpt>
      <trkpt lat="43.85665" lon="6.5875">
        <ele>1205.15</ele>
        <time>2012-09-16T12:27:35Z</time>
      </trkpt>
      <trkpt lat="43.85665" lon="6.5875">
        <ele>1205.63</ele>
        <time>2012-09-16T12:28:02Z</time>
      </trkpt>
      <trkpt lat="43.85664" lon="6.58756">
        <ele>1206.59</ele>
        <time>2012-09-16T12:28:21Z</time>
      </trkpt>
      <trkpt lat="43.85663" lon="6.58758">
        <ele>1206.59</ele>
        <time>2012-09-16T12:28:44Z</time>
      </trkpt>
      <trkpt lat="43.85664" lon="6.58759">
        <ele>1206.59</ele>
        <time>2012-09-16T12:29:10Z</time>
      </trkpt>
      <trkpt lat="43.85664" lon="6.58759">
        <ele>1206.59</ele>
        <time>2012-09-16T12:29:41Z</time>
      </trkpt>
      <trkpt lat="43.85664" lon="6.58759">
        <ele>1209.96</ele>
        <time>2012-09-16T12:29:49Z</time>
      </trkpt>
      <trkpt lat="43.85664" lon="6.58759">
        <ele>1209.96</ele>
        <time>2012-09-16T12:29:50Z</time>
      </trkpt>
      <trkpt lat="43.85663" lon="6.5876">
        <ele>1209.96</ele>
        <time>2012-09-16T12:30:21Z</time>
      </trkpt>
      <trkpt lat="43.85663" lon="6.5876">
        <ele>1207.07</ele>
        <time>2012-09-16T12:30:23Z</time>
      </trkpt>
      <trkpt lat="43.85662" lon="6.58762">
        <ele>1206.11</ele>
        <time>2012-09-16T12:30:48Z</time>
      </trkpt>
      <trkpt lat="43.85662" lon="6.58762">
        <ele>1207.55</ele>
        <time>2012-09-16T12:31:17Z</time>
      </trkpt>
      <trkpt lat="43.85662" lon="6.58762">
        <ele>1207.55</ele>
        <time>2012-09-16T12:31:40Z</time>
      </trkpt>
      <trkpt lat="43.85663" lon="6.58761">
        <ele>1207.07</ele>
        <time>2012-09-16T12:32:15Z</time>
      </trkpt>
      <trkpt lat="43.85664" lon="6.5876">
        <ele>1207.55</ele>
        <time>2012-09-16T12:32:43Z</time>
      </trkpt>
      <trkpt lat="43.85662" lon="6.58758">
        <ele>1207.55</ele>
        <time>2012-09-16T12:33:04Z</time>
      </trkpt>
      <trkpt lat="43.85663" lon="6.58757">
        <ele>1207.55</ele>
        <time>2012-09-16T12:33:35Z</time>
      </trkpt>
      <trkpt lat="43.85663" lon="6.58756">
        <ele>1207.55</ele>
        <time>2012-09-16T12:34:01Z</time>
      </trkpt>
      <trkpt lat="43.85661" lon="6.58755">
        <ele>1208.03</ele>
        <time>2012-09-16T12:34:32Z</time>
      </trkpt>
      <trkpt lat="43.85656" lon="6.58762">
        <ele>1208.51</ele>
        <time>2012-09-16T12:34:47Z</time>
      </trkpt>
      <trkpt lat="43.85656" lon="6.58765">
        <ele>1209.48</ele>
        <time>2012-09-16T12:35:06Z</time>
      </trkpt>
      <trkpt lat="43.8565" lon="6.58774">
        <ele>1209.96</ele>
        <time>2012-09-16T12:35:20Z</time>
      </trkpt>
      <trkpt lat="43.85643" lon="6.58798">
        <ele>1212.36</ele>
        <time>2012-09-16T12:35:38Z</time>
      </trkpt>
      <trkpt lat="43.85643" lon="6.58803">
        <ele>1214.28</ele>
        <time>2012-09-16T12:35:58Z</time>
      </trkpt>
      <trkpt lat="43.85636" lon="6.58816">
        <ele>1213.8</ele>
        <time>2012-09-16T12:36:19Z</time>
      </trkpt>
      <trkpt lat="43.85619" lon="6.58828">
        <ele>1212.84</ele>
        <time>2012-09-16T12:36:37Z</time>
      </trkpt>
      <trkpt lat="43.85607" lon="6.58848">
        <ele>1213.8</ele>
        <time>2012-09-16T12:36:55Z</time>
      </trkpt>
      <trkpt lat="43.856" lon="6.5886">
        <ele>1214.28</ele>
        <time>2012-09-16T12:37:12Z</time>
      </trkpt>
      <trkpt lat="43.85592" lon="6.58874">
        <ele>1216.21</ele>
        <time>2012-09-16T12:37:29Z</time>
      </trkpt>
      <trkpt lat="43.85585" lon="6.58882">
        <ele>1217.17</ele>
        <time>2012-09-16T12:37:45Z</time>
      </trkpt>
      <trkpt lat="43.85582" lon="6.58887">
        <ele>1217.65</ele>
        <time>2012-09-16T12:37:59Z</time>
      </trkpt>
      <trkpt lat="43.85577" lon="6.58902">
        <ele>1219.09</ele>
        <time>2012-09-16T12:38:13Z</time>
      </trkpt>
      <trkpt lat="43.85568" lon="6.58914">
        <ele>1220.53</ele>
        <time>2012-09-16T12:38:32Z</time>
      </trkpt>
      <trkpt lat="43.85559" lon="6.58922">
        <ele>1221.01</ele>
        <time>2012-09-16T12:38:48Z</time>
      </trkpt>
      <trkpt lat="43.85552" lon="6.58944">
        <ele>1223.42</ele>
        <time>2012-09-16T12:39:06Z</time>
      </trkpt>
      <trkpt lat="43.85549" lon="6.58958">
        <ele>1225.34</ele>
        <time>2012-09-16T12:39:25Z</time>
      </trkpt>
      <trkpt lat="43.85548" lon="6.58966">
        <ele>1227.26</ele>
        <time>2012-09-16T12:39:43Z</time>
      </trkpt>
      <trkpt lat="43.85544" lon="6.5898">
        <ele>1228.7</ele>
        <time>2012-09-16T12:40:00Z</time>
      </trkpt>
      <trkpt lat="43.85543" lon="6.58983">
        <ele>1230.14</ele>
        <time>2012-09-16T12:40:14Z</time>
      </trkpt>
      <trkpt lat="43.85528" lon="6.58997">
        <ele>1231.11</ele>
        <time>2012-09-16T12:40:31Z</time>
      </trkpt>
      <trkpt lat="43.85523" lon="6.58999">
        <ele>1230.14</ele>
        <time>2012-09-16T12:40:35Z</time>
      </trkpt>
      <trkpt lat="43.85503" lon="6.5899">
        <ele>1230.62</ele>
        <time>2012-09-16T12:40:53Z</time>
      </trkpt>
      <trkpt lat="43.85491" lon="6.58989">
        <ele>1232.55</ele>
        <time>2012-09-16T12:41:10Z</time>
      </trkpt>
      <trkpt lat="43.85483" lon="6.59001">
        <ele>1234.47</ele>
        <time>2012-09-16T12:41:28Z</time>
      </trkpt>
      <trkpt lat="43.85481" lon="6.59003">
        <ele>1234.47</ele>
        <time>2012-09-16T12:41:47Z</time>
      </trkpt>
      <trkpt lat="43.8548" lon="6.59005">
        <ele>1234.47</ele>
        <time>2012-09-16T12:42:11Z</time>
      </trkpt>
      <trkpt lat="43.8548" lon="6.59005">
        <ele>1235.43</ele>
        <time>2012-09-16T12:42:36Z</time>
      </trkpt>
      <trkpt lat="43.8548" lon="6.59005">
        <ele>1234.95</ele>
        <time>2012-09-16T12:43:01Z</time>
      </trkpt>
      <trkpt lat="43.85481" lon="6.59005">
        <ele>1235.43</ele>
        <time>2012-09-16T12:43:28Z</time>
      </trkpt>
      <trkpt lat="43.85481" lon="6.59012">
        <ele>1236.39</ele>
        <time>2012-09-16T12:43:51Z</time>
      </trkpt>
      <trkpt lat="43.85478" lon="6.59016">
        <ele>1238.8</ele>
        <time>2012-09-16T12:44:12Z</time>
      </trkpt>
      <trkpt lat="43.85474" lon="6.59029">
        <ele>1240.72</ele>
        <time>2012-09-16T12:44:36Z</time>
      </trkpt>
      <trkpt lat="43.8547" lon="6.59054">
        <ele>1241.68</ele>
        <time>2012-09-16T12:44:56Z</time>
      </trkpt>
      <trkpt lat="43.85471" lon="6.59068">
        <ele>1244.08</ele>
        <time>2012-09-16T12:45:18Z</time>
      </trkpt>
      <trkpt lat="43.85477" lon="6.59074">
        <ele>1246.01</ele>
        <time>2012-09-16T12:45:42Z</time>
      </trkpt>
      <trkpt lat="43.85483" lon="6.59074">
        <ele>1246.01</ele>
        <time>2012-09-16T12:46:01Z</time>
      </trkpt>
      <trkpt lat="43.85485" lon="6.59069">
        <ele>1246.01</ele>
        <time>2012-09-16T12:46:24Z</time>
      </trkpt>
      <trkpt lat="43.85486" lon="6.59065">
        <ele>1246.49</ele>
        <time>2012-09-16T12:46:42Z</time>
      </trkpt>
      <trkpt lat="43.85497" lon="6.59073">
        <ele>1246.97</ele>
        <time>2012-09-16T12:46:58Z</time>
      </trkpt>
      <trkpt lat="43.85508" lon="6.59079">
        <ele>1249.37</ele>
        <time>2012-09-16T12:47:15Z</time>
      </trkpt>
      <trkpt lat="43.85523" lon="6.5908">
        <ele>1249.85</ele>
        <time>2012-09-16T12:47:32Z</time>
      </trkpt>
      <trkpt lat="43.85538" lon="6.59086">
        <ele>1251.77</ele>
        <time>2012-09-16T12:47:48Z</time>
      </trkpt>
      <trkpt lat="43.85551" lon="6.59086">
        <ele>1254.18</ele>
        <time>2012-09-16T12:48:06Z</time>
      </trkpt>
      <trkpt lat="43.85556" lon="6.59082">
        <ele>1255.14</ele>
        <time>2012-09-16T12:48:26Z</time>
      </trkpt>
      <trkpt lat="43.85566" lon="6.59074">
        <ele>1257.06</ele>
        <time>2012-09-16T12:48:40Z</time>
      </trkpt>
      <trkpt lat="43.85573" lon="6.59064">
        <ele>1258.02</ele>
        <time>2012-09-16T12:48:53Z</time>
      </trkpt>
      <trkpt lat="43.85583" lon="6.59054">
        <ele>1260.43</ele>
        <time>2012-09-16T12:49:12Z</time>
      </trkpt>
      <trkpt lat="43.856" lon="6.59053">
        <ele>1261.87</ele>
        <time>2012-09-16T12:49:31Z</time>
      </trkpt>
      <trkpt lat="43.85609" lon="6.59046">
        <ele>1263.79</ele>
        <time>2012-09-16T12:49:48Z</time>
      </trkpt>
      <trkpt lat="43.85627" lon="6.59041">
        <ele>1265.23</ele>
        <time>2012-09-16T12:50:07Z</time>
      </trkpt>
      <trkpt lat="43.85628" lon="6.59042">
        <ele>1265.71</ele>
        <time>2012-09-16T12:50:09Z</time>
      </trkpt>
      <trkpt lat="43.85641" lon="6.59037">
        <ele>1267.16</ele>
        <time>2012-09-16T12:50:29Z</time>
      </trkpt>
      <trkpt lat="43.85648" lon="6.59036">
        <ele>1267.64</ele>
        <time>2012-09-16T12:50:50Z</time>
      </trkpt>
      <trkpt lat="43.85664" lon="6.59039">
        <ele>1269.08</ele>
        <time>2012-09-16T12:51:09Z</time>
      </trkpt>
      <trkpt lat="43.85671" lon="6.59031">
        <ele>1270.52</ele>
        <time>2012-09-16T12:51:20Z</time>
      </trkpt>
      <trkpt lat="43.85684" lon="6.59026">
        <ele>1271</ele>
        <time>2012-09-16T12:51:37Z</time>
      </trkpt>
      <trkpt lat="43.85695" lon="6.59022">
        <ele>1271.96</ele>
        <time>2012-09-16T12:51:54Z</time>
      </trkpt>
      <trkpt lat="43.85706" lon="6.59014">
        <ele>1272.92</ele>
        <time>2012-09-16T12:52:12Z</time>
      </trkpt>
      <trkpt lat="43.85722" lon="6.59013">
        <ele>1272.92</ele>
        <time>2012-09-16T12:52:28Z</time>
      </trkpt>
      <trkpt lat="43.85736" lon="6.59009">
        <ele>1271.96</ele>
        <time>2012-09-16T12:52:45Z</time>
      </trkpt>
      <trkpt lat="43.85752" lon="6.5901">
        <ele>1269.56</ele>
        <time>2012-09-16T12:53:03Z</time>
      </trkpt>
      <trkpt lat="43.85764" lon="6.59003">
        <ele>1269.08</ele>
        <time>2012-09-16T12:53:21Z</time>
      </trkpt>
      <trkpt lat="43.85772" lon="6.58998">
        <ele>1270.52</ele>
        <time>2012-09-16T12:53:42Z</time>
      </trkpt>
      <trkpt lat="43.85778" lon="6.58999">
        <ele>1272.44</ele>
        <time>2012-09-16T12:53:58Z</time>
      </trkpt>
      <trkpt lat="43.858" lon="6.59006">
        <ele>1274.36</ele>
        <time>2012-09-16T12:54:15Z</time>
      </trkpt>
      <trkpt lat="43.85807" lon="6.59007">
        <ele>1275.33</ele>
        <time>2012-09-16T12:54:33Z</time>
      </trkpt>
      <trkpt lat="43.8581" lon="6.59007">
        <ele>1274.36</ele>
        <time>2012-09-16T12:54:59Z</time>
      </trkpt>
      <trkpt lat="43.85817" lon="6.59011">
        <ele>1274.36</ele>
        <time>2012-09-16T12:55:21Z</time>
      </trkpt>
      <trkpt lat="43.85836" lon="6.59019">
        <ele>1276.29</ele>
        <time>2012-09-16T12:55:39Z</time>
      </trkpt>
      <trkpt lat="43.85851" lon="6.59027">
        <ele>1278.21</ele>
        <time>2012-09-16T12:55:53Z</time>
      </trkpt>
      <trkpt lat="43.85861" lon="6.59032">
        <ele>1278.69</ele>
        <time>2012-09-16T12:56:11Z</time>
      </trkpt>
      <trkpt lat="43.85874" lon="6.59037">
        <ele>1280.13</ele>
        <time>2012-09-16T12:56:28Z</time>
      </trkpt>
      <trkpt lat="43.85885" lon="6.59041">
        <ele>1281.09</ele>
        <time>2012-09-16T12:56:44Z</time>
      </trkpt>
      <trkpt lat="43.85896" lon="6.59042">
        <ele>1280.61</ele>
        <time>2012-09-16T12:56:58Z</time>
      </trkpt>
      <trkpt lat="43.85914" lon="6.59039">
        <ele>1281.09</ele>
        <time>2012-09-16T12:57:15Z</time>
      </trkpt>
      <trkpt lat="43.85925" lon="6.59034">
        <ele>1280.61</ele>
        <time>2012-09-16T12:57:31Z</time>
      </trkpt>
      <trkpt lat="43.85931" lon="6.59037">
        <ele>1280.61</ele>
        <time>2012-09-16T12:57:38Z</time>
      </trkpt>
      <trkpt lat="43.85947" lon="6.59048">
        <ele>1280.61</ele>
        <time>2012-09-16T12:57:54Z</time>
      </trkpt>
      <trkpt lat="43.85958" lon="6.59055">
        <ele>1280.61</ele>
        <time>2012-09-16T12:58:09Z</time>
      </trkpt>
      <trkpt lat="43.8597" lon="6.59066">
        <ele>1281.57</ele>
        <time>2012-09-16T12:58:24Z</time>
      </trkpt>
      <trkpt lat="43.85983" lon="6.59082">
        <ele>1283.02</ele>
        <time>2012-09-16T12:58:43Z</time>
      </trkpt>
      <trkpt lat="43.85994" lon="6.59093">
        <ele>1284.46</ele>
        <time>2012-09-16T12:58:57Z</time>
      </trkpt>
      <trkpt lat="43.86006" lon="6.591">
        <ele>1285.9</ele>
        <time>2012-09-16T12:59:12Z</time>
      </trkpt>
      <trkpt lat="43.86012" lon="6.59105">
        <ele>1286.38</ele>
        <time>2012-09-16T12:59:25Z</time>
      </trkpt>
      <trkpt lat="43.86026" lon="6.59112">
        <ele>1286.86</ele>
        <time>2012-09-16T12:59:40Z</time>
      </trkpt>
      <trkpt lat="43.86036" lon="6.59121">
        <ele>1287.34</ele>
        <time>2012-09-16T12:59:55Z</time>
      </trkpt>
      <trkpt lat="43.86047" lon="6.59133">
        <ele>1288.3</ele>
        <time>2012-09-16T13:00:09Z</time>
      </trkpt>
      <trkpt lat="43.86054" lon="6.59136">
        <ele>1288.78</ele>
        <time>2012-09-16T13:00:22Z</time>
      </trkpt>
      <trkpt lat="43.86068" lon="6.59133">
        <ele>1289.75</ele>
        <time>2012-09-16T13:00:37Z</time>
      </trkpt>
      <trkpt lat="43.86073" lon="6.59129">
        <ele>1291.19</ele>
        <time>2012-09-16T13:00:49Z</time>
      </trkpt>
      <trkpt lat="43.86072" lon="6.59128">
        <ele>1290.71</ele>
        <time>2012-09-16T13:01:03Z</time>
      </trkpt>
      <trkpt lat="43.8607" lon="6.59129">
        <ele>1290.71</ele>
        <time>2012-09-16T13:01:24Z</time>
      </trkpt>
      <trkpt lat="43.86071" lon="6.59129">
        <ele>1291.19</ele>
        <time>2012-09-16T13:01:57Z</time>
      </trkpt>
      <trkpt lat="43.86072" lon="6.5913">
        <ele>1291.19</ele>
        <time>2012-09-16T13:02:34Z</time>
      </trkpt>
      <trkpt lat="43.86072" lon="6.5913">
        <ele>1291.67</ele>
        <time>2012-09-16T13:02:54Z</time>
      </trkpt>
      <trkpt lat="43.86072" lon="6.5913">
        <ele>1291.67</ele>
        <time>2012-09-16T13:03:17Z</time>
      </trkpt>
      <trkpt lat="43.86072" lon="6.59131">
        <ele>1291.67</ele>
        <time>2012-09-16T13:03:41Z</time>
      </trkpt>
      <trkpt lat="43.86074" lon="6.5914">
        <ele>1291.67</ele>
        <time>2012-09-16T13:03:55Z</time>
      </trkpt>
      <trkpt lat="43.86078" lon="6.59152">
        <ele>1292.15</ele>
        <time>2012-09-16T13:04:05Z</time>
      </trkpt>
      <trkpt lat="43.86092" lon="6.59168">
        <ele>1292.15</ele>
        <time>2012-09-16T13:04:23Z</time>
      </trkpt>
      <trkpt lat="43.86103" lon="6.59184">
        <ele>1291.19</ele>
        <time>2012-09-16T13:04:40Z</time>
      </trkpt>
      <trkpt lat="43.86117" lon="6.59199">
        <ele>1290.71</ele>
        <time>2012-09-16T13:04:57Z</time>
      </trkpt>
      <trkpt lat="43.86129" lon="6.59212">
        <ele>1291.67</ele>
        <time>2012-09-16T13:05:12Z</time>
      </trkpt>
      <trkpt lat="43.86137" lon="6.59222">
        <ele>1291.19</ele>
        <time>2012-09-16T13:05:25Z</time>
      </trkpt>
      <trkpt lat="43.86146" lon="6.59237">
        <ele>1290.71</ele>
        <time>2012-09-16T13:05:42Z</time>
      </trkpt>
      <trkpt lat="43.86158" lon="6.5925">
        <ele>1290.23</ele>
        <time>2012-09-16T13:06:00Z</time>
      </trkpt>
      <trkpt lat="43.86171" lon="6.5926">
        <ele>1291.67</ele>
        <time>2012-09-16T13:06:15Z</time>
      </trkpt>
      <trkpt lat="43.86183" lon="6.59275">
        <ele>1293.11</ele>
        <time>2012-09-16T13:06:34Z</time>
      </trkpt>
      <trkpt lat="43.86191" lon="6.59289">
        <ele>1293.11</ele>
        <time>2012-09-16T13:06:51Z</time>
      </trkpt>
      <trkpt lat="43.86199" lon="6.59303">
        <ele>1292.63</ele>
        <time>2012-09-16T13:07:08Z</time>
      </trkpt>
      <trkpt lat="43.86206" lon="6.59315">
        <ele>1291.67</ele>
        <time>2012-09-16T13:07:22Z</time>
      </trkpt>
      <trkpt lat="43.8621" lon="6.5933">
        <ele>1290.71</ele>
        <time>2012-09-16T13:07:36Z</time>
      </trkpt>
      <trkpt lat="43.86217" lon="6.59346">
        <ele>1290.23</ele>
        <time>2012-09-16T13:07:51Z</time>
      </trkpt>
      <trkpt lat="43.86225" lon="6.59361">
        <ele>1290.71</ele>
        <time>2012-09-16T13:08:06Z</time>
      </trkpt>
      <trkpt lat="43.86237" lon="6.59372">
        <ele>1289.75</ele>
        <time>2012-09-16T13:08:20Z</time>
      </trkpt>
      <trkpt lat="43.86248" lon="6.59364">
        <ele>1290.23</ele>
        <time>2012-09-16T13:08:35Z</time>
      </trkpt>
      <trkpt lat="43.86256" lon="6.59353">
        <ele>1290.71</ele>
        <time>2012-09-16T13:08:48Z</time>
      </trkpt>
      <trkpt lat="43.86258" lon="6.59347">
        <ele>1291.19</ele>
        <time>2012-09-16T13:09:03Z</time>
      </trkpt>
      <trkpt lat="43.86267" lon="6.59339">
        <ele>1292.63</ele>
        <time>2012-09-16T13:09:18Z</time>
      </trkpt>
      <trkpt lat="43.86273" lon="6.59333">
        <ele>1293.11</ele>
        <time>2012-09-16T13:09:31Z</time>
      </trkpt>
      <trkpt lat="43.86277" lon="6.59332">
        <ele>1293.11</ele>
        <time>2012-09-16T13:09:36Z</time>
      </trkpt>
      <trkpt lat="43.86281" lon="6.59332">
        <ele>1293.59</ele>
        <time>2012-09-16T13:09:40Z</time>
      </trkpt>
      <trkpt lat="43.86295" lon="6.59336">
        <ele>1294.55</ele>
        <time>2012-09-16T13:09:56Z</time>
      </trkpt>
      <trkpt lat="43.86306" lon="6.59339">
        <ele>1295.51</ele>
        <time>2012-09-16T13:10:11Z</time>
      </trkpt>
      <trkpt lat="43.86316" lon="6.59342">
        <ele>1295.99</ele>
        <time>2012-09-16T13:10:25Z</time>
      </trkpt>
      <trkpt lat="43.86317" lon="6.59343">
        <ele>1296.48</ele>
        <time>2012-09-16T13:10:42Z</time>
      </trkpt>
      <trkpt lat="43.86324" lon="6.59349">
        <ele>1296.48</ele>
        <time>2012-09-16T13:10:55Z</time>
      </trkpt>
      <trkpt lat="43.86325" lon="6.5935">
        <ele>1296.96</ele>
        <time>2012-09-16T13:10:56Z</time>
      </trkpt>
      <trkpt lat="43.86335" lon="6.59366">
        <ele>1296.96</ele>
        <time>2012-09-16T13:11:12Z</time>
      </trkpt>
      <trkpt lat="43.86337" lon="6.59371">
        <ele>1295.99</ele>
        <time>2012-09-16T13:11:31Z</time>
      </trkpt>
      <trkpt lat="43.86336" lon="6.59384">
        <ele>1294.07</ele>
        <time>2012-09-16T13:11:48Z</time>
      </trkpt>
      <trkpt lat="43.86338" lon="6.594">
        <ele>1293.11</ele>
        <time>2012-09-16T13:12:03Z</time>
      </trkpt>
      <trkpt lat="43.86342" lon="6.59416">
        <ele>1291.67</ele>
        <time>2012-09-16T13:12:18Z</time>
      </trkpt>
      <trkpt lat="43.86346" lon="6.59435">
        <ele>1290.71</ele>
        <time>2012-09-16T13:12:35Z</time>
      </trkpt>
      <trkpt lat="43.86352" lon="6.59457">
        <ele>1289.27</ele>
        <time>2012-09-16T13:12:53Z</time>
      </trkpt>
      <trkpt lat="43.86355" lon="6.59467">
        <ele>1289.75</ele>
        <time>2012-09-16T13:13:01Z</time>
      </trkpt>
      <trkpt lat="43.86365" lon="6.59487">
        <ele>1289.75</ele>
        <time>2012-09-16T13:13:17Z</time>
      </trkpt>
      <trkpt lat="43.86372" lon="6.59504">
        <ele>1289.75</ele>
        <time>2012-09-16T13:13:34Z</time>
      </trkpt>
      <trkpt lat="43.86376" lon="6.59516">
        <ele>1289.75</ele>
        <time>2012-09-16T13:13:48Z</time>
      </trkpt>
      <trkpt lat="43.86386" lon="6.59532">
        <ele>1290.23</ele>
        <time>2012-09-16T13:14:03Z</time>
      </trkpt>
      <trkpt lat="43.86394" lon="6.59544">
        <ele>1289.75</ele>
        <time>2012-09-16T13:14:16Z</time>
      </trkpt>
      <trkpt lat="43.86397" lon="6.59559">
        <ele>1290.23</ele>
        <time>2012-09-16T13:14:29Z</time>
      </trkpt>
      <trkpt lat="43.86409" lon="6.59569">
        <ele>1289.75</ele>
        <time>2012-09-16T13:14:44Z</time>
      </trkpt>
      <trkpt lat="43.86418" lon="6.59583">
        <ele>1289.75</ele>
        <time>2012-09-16T13:14:57Z</time>
      </trkpt>
      <trkpt lat="43.86424" lon="6.59593">
        <ele>1289.27</ele>
        <time>2012-09-16T13:15:13Z</time>
      </trkpt>
      <trkpt lat="43.86424" lon="6.59609">
        <ele>1288.3</ele>
        <time>2012-09-16T13:15:26Z</time>
      </trkpt>
      <trkpt lat="43.86427" lon="6.59627">
        <ele>1286.86</ele>
        <time>2012-09-16T13:15:41Z</time>
      </trkpt>
      <trkpt lat="43.8643" lon="6.59644">
        <ele>1286.38</ele>
        <time>2012-09-16T13:15:57Z</time>
      </trkpt>
      <trkpt lat="43.86433" lon="6.59661">
        <ele>1285.42</ele>
        <time>2012-09-16T13:16:13Z</time>
      </trkpt>
      <trkpt lat="43.86438" lon="6.59686">
        <ele>1283.98</ele>
        <time>2012-09-16T13:16:29Z</time>
      </trkpt>
      <trkpt lat="43.86442" lon="6.59703">
        <ele>1284.46</ele>
        <time>2012-09-16T13:16:44Z</time>
      </trkpt>
      <trkpt lat="43.86443" lon="6.59719">
        <ele>1284.94</ele>
        <time>2012-09-16T13:16:56Z</time>
      </trkpt>
      <trkpt lat="43.86449" lon="6.59739">
        <ele>1283.5</ele>
        <time>2012-09-16T13:17:13Z</time>
      </trkpt>
      <trkpt lat="43.86454" lon="6.59756">
        <ele>1283.5</ele>
        <time>2012-09-16T13:17:28Z</time>
      </trkpt>
      <trkpt lat="43.86457" lon="6.59776">
        <ele>1283.5</ele>
        <time>2012-09-16T13:17:43Z</time>
      </trkpt>
      <trkpt lat="43.86455" lon="6.59794">
        <ele>1283.02</ele>
        <time>2012-09-16T13:17:58Z</time>
      </trkpt>
      <trkpt lat="43.86455" lon="6.59812">
        <ele>1282.54</ele>
        <time>2012-09-16T13:18:11Z</time>
      </trkpt>
      <trkpt lat="43.86453" lon="6.59833">
        <ele>1281.57</ele>
        <time>2012-09-16T13:18:27Z</time>
      </trkpt>
      <trkpt lat="43.86453" lon="6.59852">
        <ele>1281.09</ele>
        <time>2012-09-16T13:18:43Z</time>
      </trkpt>
      <trkpt lat="43.86453" lon="6.59867">
        <ele>1280.13</ele>
        <time>2012-09-16T13:18:59Z</time>
      </trkpt>
      <trkpt lat="43.86451" lon="6.59887">
        <ele>1278.69</ele>
        <time>2012-09-16T13:19:14Z</time>
      </trkpt>
      <trkpt lat="43.86453" lon="6.59905">
        <ele>1277.73</ele>
        <time>2012-09-16T13:19:29Z</time>
      </trkpt>
      <trkpt lat="43.86453" lon="6.59924">
        <ele>1277.73</ele>
        <time>2012-09-16T13:19:42Z</time>
      </trkpt>
      <trkpt lat="43.86456" lon="6.59949">
        <ele>1277.73</ele>
        <time>2012-09-16T13:20:01Z</time>
      </trkpt>
      <trkpt lat="43.8646" lon="6.59967">
        <ele>1277.25</ele>
        <time>2012-09-16T13:20:13Z</time>
      </trkpt>
      <trkpt lat="43.86461" lon="6.59991">
        <ele>1277.73</ele>
        <time>2012-09-16T13:20:29Z</time>
      </trkpt>
      <trkpt lat="43.86465" lon="6.60012">
        <ele>1278.21</ele>
        <time>2012-09-16T13:20:44Z</time>
      </trkpt>
      <trkpt lat="43.86465" lon="6.60034">
        <ele>1279.17</ele>
        <time>2012-09-16T13:20:58Z</time>
      </trkpt>
      <trkpt lat="43.86468" lon="6.6005">
        <ele>1279.65</ele>
        <time>2012-09-16T13:21:12Z</time>
      </trkpt>
      <trkpt lat="43.86469" lon="6.60065">
        <ele>1280.13</ele>
        <time>2012-09-16T13:21:26Z</time>
      </trkpt>
      <trkpt lat="43.8647" lon="6.60084">
        <ele>1280.61</ele>
        <time>2012-09-16T13:21:40Z</time>
      </trkpt>
      <trkpt lat="43.86469" lon="6.60089">
        <ele>1280.13</ele>
        <time>2012-09-16T13:21:54Z</time>
      </trkpt>
      <trkpt lat="43.86469" lon="6.60106">
        <ele>1280.61</ele>
        <time>2012-09-16T13:22:09Z</time>
      </trkpt>
      <trkpt lat="43.86471" lon="6.60125">
        <ele>1280.13</ele>
        <time>2012-09-16T13:22:24Z</time>
      </trkpt>
      <trkpt lat="43.86474" lon="6.60139">
        <ele>1279.65</ele>
        <time>2012-09-16T13:22:39Z</time>
      </trkpt>
      <trkpt lat="43.86476" lon="6.60159">
        <ele>1278.69</ele>
        <time>2012-09-16T13:22:54Z</time>
      </trkpt>
      <trkpt lat="43.86477" lon="6.60177">
        <ele>1277.73</ele>
        <time>2012-09-16T13:23:09Z</time>
      </trkpt>
      <trkpt lat="43.8648" lon="6.60197">
        <ele>1277.73</ele>
        <time>2012-09-16T13:23:25Z</time>
      </trkpt>
      <trkpt lat="43.86483" lon="6.60215">
        <ele>1277.25</ele>
        <time>2012-09-16T13:23:38Z</time>
      </trkpt>
      <trkpt lat="43.86482" lon="6.60233">
        <ele>1277.73</ele>
        <time>2012-09-16T13:23:53Z</time>
      </trkpt>
      <trkpt lat="43.86483" lon="6.60251">
        <ele>1277.25</ele>
        <time>2012-09-16T13:24:07Z</time>
      </trkpt>
      <trkpt lat="43.86487" lon="6.60275">
        <ele>1277.25</ele>
        <time>2012-09-16T13:24:23Z</time>
      </trkpt>
      <trkpt lat="43.86486" lon="6.60295">
        <ele>1276.77</ele>
        <time>2012-09-16T13:24:38Z</time>
      </trkpt>
      <trkpt lat="43.86488" lon="6.60318">
        <ele>1275.81</ele>
        <time>2012-09-16T13:24:52Z</time>
      </trkpt>
      <trkpt lat="43.86491" lon="6.60341">
        <ele>1275.81</ele>
        <time>2012-09-16T13:25:06Z</time>
      </trkpt>
      <trkpt lat="43.86492" lon="6.6036">
        <ele>1276.29</ele>
        <time>2012-09-16T13:25:20Z</time>
      </trkpt>
      <trkpt lat="43.86494" lon="6.60375">
        <ele>1276.29</ele>
        <time>2012-09-16T13:25:33Z</time>
      </trkpt>
      <trkpt lat="43.86493" lon="6.60392">
        <ele>1276.77</ele>
        <time>2012-09-16T13:25:46Z</time>
      </trkpt>
      <trkpt lat="43.86495" lon="6.6042">
        <ele>1276.29</ele>
        <time>2012-09-16T13:26:02Z</time>
      </trkpt>
      <trkpt lat="43.86497" lon="6.60437">
        <ele>1277.25</ele>
        <time>2012-09-16T13:26:16Z</time>
      </trkpt>
      <trkpt lat="43.86496" lon="6.60462">
        <ele>1276.77</ele>
        <time>2012-09-16T13:26:33Z</time>
      </trkpt>
      <trkpt lat="43.86496" lon="6.60476">
        <ele>1276.77</ele>
        <time>2012-09-16T13:26:50Z</time>
      </trkpt>
      <trkpt lat="43.86498" lon="6.60497">
        <ele>1277.25</ele>
        <time>2012-09-16T13:27:06Z</time>
      </trkpt>
      <trkpt lat="43.865" lon="6.60515">
        <ele>1277.25</ele>
        <time>2012-09-16T13:27:19Z</time>
      </trkpt>
      <trkpt lat="43.86503" lon="6.60523">
        <ele>1278.69</ele>
        <time>2012-09-16T13:27:35Z</time>
      </trkpt>
      <trkpt lat="43.86505" lon="6.6054">
        <ele>1279.17</ele>
        <time>2012-09-16T13:27:49Z</time>
      </trkpt>
      <trkpt lat="43.86505" lon="6.60557">
        <ele>1279.17</ele>
        <time>2012-09-16T13:28:03Z</time>
      </trkpt>
      <trkpt lat="43.86507" lon="6.60575">
        <ele>1279.17</ele>
        <time>2012-09-16T13:28:19Z</time>
      </trkpt>
      <trkpt lat="43.86509" lon="6.60588">
        <ele>1279.17</ele>
        <time>2012-09-16T13:28:38Z</time>
      </trkpt>
      <trkpt lat="43.8651" lon="6.60593">
        <ele>1279.17</ele>
        <time>2012-09-16T13:28:57Z</time>
      </trkpt>
      <trkpt lat="43.86511" lon="6.60604">
        <ele>1279.65</ele>
        <time>2012-09-16T13:29:19Z</time>
      </trkpt>
      <trkpt lat="43.8651" lon="6.60621">
        <ele>1280.61</ele>
        <time>2012-09-16T13:29:33Z</time>
      </trkpt>
      <trkpt lat="43.86511" lon="6.60638">
        <ele>1281.09</ele>
        <time>2012-09-16T13:29:47Z</time>
      </trkpt>
      <trkpt lat="43.86513" lon="6.60656">
        <ele>1281.09</ele>
        <time>2012-09-16T13:30:02Z</time>
      </trkpt>
      <trkpt lat="43.86514" lon="6.60662">
        <ele>1281.09</ele>
        <time>2012-09-16T13:30:07Z</time>
      </trkpt>
      <trkpt lat="43.86516" lon="6.60681">
        <ele>1281.57</ele>
        <time>2012-09-16T13:30:22Z</time>
      </trkpt>
      <trkpt lat="43.8652" lon="6.60699">
        <ele>1281.57</ele>
        <time>2012-09-16T13:30:37Z</time>
      </trkpt>
      <trkpt lat="43.86522" lon="6.60716">
        <ele>1281.57</ele>
        <time>2012-09-16T13:30:52Z</time>
      </trkpt>
      <trkpt lat="43.86523" lon="6.60739">
        <ele>1282.06</ele>
        <time>2012-09-16T13:31:08Z</time>
      </trkpt>
      <trkpt lat="43.86523" lon="6.60761">
        <ele>1282.06</ele>
        <time>2012-09-16T13:31:21Z</time>
      </trkpt>
      <trkpt lat="43.86524" lon="6.60768">
        <ele>1282.06</ele>
        <time>2012-09-16T13:31:26Z</time>
      </trkpt>
      <trkpt lat="43.86523" lon="6.60789">
        <ele>1282.06</ele>
        <time>2012-09-16T13:31:41Z</time>
      </trkpt>
      <trkpt lat="43.86524" lon="6.60806">
        <ele>1282.06</ele>
        <time>2012-09-16T13:31:54Z</time>
      </trkpt>
      <trkpt lat="43.86525" lon="6.60813">
        <ele>1282.54</ele>
        <time>2012-09-16T13:32:08Z</time>
      </trkpt>
      <trkpt lat="43.86527" lon="6.60831">
        <ele>1283.02</ele>
        <time>2012-09-16T13:32:21Z</time>
      </trkpt>
      <trkpt lat="43.86529" lon="6.60853">
        <ele>1282.54</ele>
        <time>2012-09-16T13:32:37Z</time>
      </trkpt>
      <trkpt lat="43.8653" lon="6.60868">
        <ele>1282.54</ele>
        <time>2012-09-16T13:32:50Z</time>
      </trkpt>
      <trkpt lat="43.86531" lon="6.60882">
        <ele>1282.06</ele>
        <time>2012-09-16T13:33:02Z</time>
      </trkpt>
      <trkpt lat="43.8653" lon="6.609">
        <ele>1282.06</ele>
        <time>2012-09-16T13:33:15Z</time>
      </trkpt>
      <trkpt lat="43.8653" lon="6.60922">
        <ele>1282.06</ele>
        <time>2012-09-16T13:33:32Z</time>
      </trkpt>
      <trkpt lat="43.8653" lon="6.60944">
        <ele>1282.06</ele>
        <time>2012-09-16T13:33:47Z</time>
      </trkpt>
      <trkpt lat="43.86531" lon="6.60962">
        <ele>1282.06</ele>
        <time>2012-09-16T13:34:01Z</time>
      </trkpt>
      <trkpt lat="43.86531" lon="6.60982">
        <ele>1282.54</ele>
        <time>2012-09-16T13:34:14Z</time>
      </trkpt>
      <trkpt lat="43.86533" lon="6.61009">
        <ele>1282.54</ele>
        <time>2012-09-16T13:34:32Z</time>
      </trkpt>
      <trkpt lat="43.86534" lon="6.6103">
        <ele>1282.06</ele>
        <time>2012-09-16T13:34:48Z</time>
      </trkpt>
      <trkpt lat="43.86533" lon="6.61048">
        <ele>1282.06</ele>
        <time>2012-09-16T13:35:01Z</time>
      </trkpt>
      <trkpt lat="43.86534" lon="6.61053">
        <ele>1282.54</ele>
        <time>2012-09-16T13:35:19Z</time>
      </trkpt>
      <trkpt lat="43.86534" lon="6.61056">
        <ele>1282.06</ele>
        <time>2012-09-16T13:35:39Z</time>
      </trkpt>
      <trkpt lat="43.86533" lon="6.61062">
        <ele>1282.06</ele>
        <time>2012-09-16T13:35:55Z</time>
      </trkpt>
      <trkpt lat="43.86532" lon="6.61076">
        <ele>1281.57</ele>
        <time>2012-09-16T13:36:15Z</time>
      </trkpt>
      <trkpt lat="43.86533" lon="6.61094">
        <ele>1282.06</ele>
        <time>2012-09-16T13:36:39Z</time>
      </trkpt>
      <trkpt lat="43.86534" lon="6.61112">
        <ele>1282.06</ele>
        <time>2012-09-16T13:36:53Z</time>
      </trkpt>
      <trkpt lat="43.86535" lon="6.61133">
        <ele>1281.57</ele>
        <time>2012-09-16T13:37:10Z</time>
      </trkpt>
      <trkpt lat="43.86536" lon="6.61157">
        <ele>1281.57</ele>
        <time>2012-09-16T13:37:26Z</time>
      </trkpt>
      <trkpt lat="43.86538" lon="6.61168">
        <ele>1281.57</ele>
        <time>2012-09-16T13:37:40Z</time>
      </trkpt>
      <trkpt lat="43.86538" lon="6.6119">
        <ele>1281.09</ele>
        <time>2012-09-16T13:37:56Z</time>
      </trkpt>
      <trkpt lat="43.86539" lon="6.61219">
        <ele>1280.61</ele>
        <time>2012-09-16T13:38:12Z</time>
      </trkpt>
      <trkpt lat="43.86542" lon="6.61242">
        <ele>1280.13</ele>
        <time>2012-09-16T13:38:28Z</time>
      </trkpt>
      <trkpt lat="43.86545" lon="6.6127">
        <ele>1281.09</ele>
        <time>2012-09-16T13:38:45Z</time>
      </trkpt>
      <trkpt lat="43.86545" lon="6.6128">
        <ele>1281.09</ele>
        <time>2012-09-16T13:38:59Z</time>
      </trkpt>
      <trkpt lat="43.86547" lon="6.61295">
        <ele>1281.09</ele>
        <time>2012-09-16T13:39:14Z</time>
      </trkpt>
      <trkpt lat="43.86551" lon="6.61325">
        <ele>1281.57</ele>
        <time>2012-09-16T13:39:29Z</time>
      </trkpt>
      <trkpt lat="43.86551" lon="6.61359">
        <ele>1282.06</ele>
        <time>2012-09-16T13:39:46Z</time>
      </trkpt>
      <trkpt lat="43.86556" lon="6.61397">
        <ele>1281.57</ele>
        <time>2012-09-16T13:40:04Z</time>
      </trkpt>
      <trkpt lat="43.8656" lon="6.61418">
        <ele>1282.06</ele>
        <time>2012-09-16T13:40:20Z</time>
      </trkpt>
      <trkpt lat="43.86565" lon="6.61437">
        <ele>1282.54</ele>
        <time>2012-09-16T13:40:32Z</time>
      </trkpt>
      <trkpt lat="43.86564" lon="6.61459">
        <ele>1283.5</ele>
        <time>2012-09-16T13:40:49Z</time>
      </trkpt>
      <trkpt lat="43.86569" lon="6.61483">
        <ele>1284.94</ele>
        <time>2012-09-16T13:41:05Z</time>
      </trkpt>
      <trkpt lat="43.86572" lon="6.61504">
        <ele>1286.38</ele>
        <time>2012-09-16T13:41:22Z</time>
      </trkpt>
      <trkpt lat="43.86578" lon="6.61526">
        <ele>1286.86</ele>
        <time>2012-09-16T13:41:41Z</time>
      </trkpt>
      <trkpt lat="43.86577" lon="6.61544">
        <ele>1287.82</ele>
        <time>2012-09-16T13:41:55Z</time>
      </trkpt>
      <trkpt lat="43.8658" lon="6.61554">
        <ele>1288.3</ele>
        <time>2012-09-16T13:42:11Z</time>
      </trkpt>
      <trkpt lat="43.86582" lon="6.61575">
        <ele>1289.75</ele>
        <time>2012-09-16T13:42:27Z</time>
      </trkpt>
      <trkpt lat="43.86586" lon="6.61594">
        <ele>1291.19</ele>
        <time>2012-09-16T13:42:43Z</time>
      </trkpt>
      <trkpt lat="43.86588" lon="6.6161">
        <ele>1293.11</ele>
        <time>2012-09-16T13:42:58Z</time>
      </trkpt>
      <trkpt lat="43.8659" lon="6.6162">
        <ele>1294.07</ele>
        <time>2012-09-16T13:43:11Z</time>
      </trkpt>
      <trkpt lat="43.86592" lon="6.61632">
        <ele>1294.55</ele>
        <time>2012-09-16T13:43:33Z</time>
      </trkpt>
      <trkpt lat="43.86597" lon="6.61648">
        <ele>1295.51</ele>
        <time>2012-09-16T13:43:48Z</time>
      </trkpt>
      <trkpt lat="43.86601" lon="6.61671">
        <ele>1296.48</ele>
        <time>2012-09-16T13:44:06Z</time>
      </trkpt>
      <trkpt lat="43.86603" lon="6.61683">
        <ele>1297.44</ele>
        <time>2012-09-16T13:44:21Z</time>
      </trkpt>
      <trkpt lat="43.86606" lon="6.61693">
        <ele>1297.92</ele>
        <time>2012-09-16T13:44:39Z</time>
      </trkpt>
      <trkpt lat="43.86611" lon="6.61707">
        <ele>1298.88</ele>
        <time>2012-09-16T13:44:51Z</time>
      </trkpt>
      <trkpt lat="43.86615" lon="6.61724">
        <ele>1299.84</ele>
        <time>2012-09-16T13:45:06Z</time>
      </trkpt>
      <trkpt lat="43.86616" lon="6.61726">
        <ele>1299.84</ele>
        <time>2012-09-16T13:45:24Z</time>
      </trkpt>
      <trkpt lat="43.86616" lon="6.61728">
        <ele>1300.32</ele>
        <time>2012-09-16T13:45:42Z</time>
      </trkpt>
      <trkpt lat="43.86619" lon="6.61746">
        <ele>1302.24</ele>
        <time>2012-09-16T13:45:56Z</time>
      </trkpt>
      <trkpt lat="43.86623" lon="6.61761">
        <ele>1303.69</ele>
        <time>2012-09-16T13:46:10Z</time>
      </trkpt>
      <trkpt lat="43.86624" lon="6.61765">
        <ele>1303.69</ele>
        <time>2012-09-16T13:46:27Z</time>
      </trkpt>
      <trkpt lat="43.86626" lon="6.61775">
        <ele>1304.17</ele>
        <time>2012-09-16T13:46:49Z</time>
      </trkpt>
      <trkpt lat="43.86627" lon="6.61789">
        <ele>1305.13</ele>
        <time>2012-09-16T13:47:02Z</time>
      </trkpt>
      <trkpt lat="43.86632" lon="6.61803">
        <ele>1306.09</ele>
        <time>2012-09-16T13:47:16Z</time>
      </trkpt>
      <trkpt lat="43.86637" lon="6.61824">
        <ele>1306.57</ele>
        <time>2012-09-16T13:47:30Z</time>
      </trkpt>
      <trkpt lat="43.86639" lon="6.61834">
        <ele>1307.53</ele>
        <time>2012-09-16T13:47:46Z</time>
      </trkpt>
      <trkpt lat="43.86639" lon="6.61837">
        <ele>1307.05</ele>
        <time>2012-09-16T13:48:03Z</time>
      </trkpt>
      <trkpt lat="43.86639" lon="6.61835">
        <ele>1306.57</ele>
        <time>2012-09-16T13:48:30Z</time>
      </trkpt>
      <trkpt lat="43.8664" lon="6.61835">
        <ele>1307.05</ele>
        <time>2012-09-16T13:49:02Z</time>
      </trkpt>
      <trkpt lat="43.8664" lon="6.61835">
        <ele>1308.49</ele>
        <time>2012-09-16T13:49:09Z</time>
      </trkpt>
      <trkpt lat="43.8664" lon="6.61835">
        <ele>1307.05</ele>
        <time>2012-09-16T13:49:21Z</time>
      </trkpt>
      <trkpt lat="43.86638" lon="6.61836">
        <ele>1307.53</ele>
        <time>2012-09-16T13:49:41Z</time>
      </trkpt>
      <trkpt lat="43.86636" lon="6.61836">
        <ele>1307.53</ele>
        <time>2012-09-16T13:50:05Z</time>
      </trkpt>
      <trkpt lat="43.86636" lon="6.61835">
        <ele>1307.53</ele>
        <time>2012-09-16T13:50:27Z</time>
      </trkpt>
      <trkpt lat="43.86637" lon="6.61838">
        <ele>1308.01</ele>
        <time>2012-09-16T13:50:52Z</time>
      </trkpt>
      <trkpt lat="43.86636" lon="6.61841">
        <ele>1308.49</ele>
        <time>2012-09-16T13:51:20Z</time>
      </trkpt>
      <trkpt lat="43.86636" lon="6.61841">
        <ele>1308.49</ele>
        <time>2012-09-16T13:51:58Z</time>
      </trkpt>
      <trkpt lat="43.86636" lon="6.61841">
        <ele>1308.49</ele>
        <time>2012-09-16T13:52:20Z</time>
      </trkpt>
      <trkpt lat="43.86636" lon="6.61843">
        <ele>1308.49</ele>
        <time>2012-09-16T13:52:50Z</time>
      </trkpt>
      <trkpt lat="43.86636" lon="6.61843">
        <ele>1309.45</ele>
        <time>2012-09-16T13:53:13Z</time>
      </trkpt>
      <trkpt lat="43.86637" lon="6.61842">
        <ele>1309.45</ele>
        <time>2012-09-16T13:53:41Z</time>
      </trkpt>
      <trkpt lat="43.86637" lon="6.61841">
        <ele>1309.93</ele>
        <time>2012-09-16T13:54:05Z</time>
      </trkpt>
      <trkpt lat="43.86637" lon="6.61842">
        <ele>1310.41</ele>
        <time>2012-09-16T13:54:29Z</time>
      </trkpt>
      <trkpt lat="43.86638" lon="6.61848">
        <ele>1310.9</ele>
        <time>2012-09-16T13:54:47Z</time>
      </trkpt>
      <trkpt lat="43.8664" lon="6.61857">
        <ele>1311.86</ele>
        <time>2012-09-16T13:55:03Z</time>
      </trkpt>
      <trkpt lat="43.86642" lon="6.61859">
        <ele>1311.86</ele>
        <time>2012-09-16T13:55:20Z</time>
      </trkpt>
      <trkpt lat="43.86641" lon="6.6186">
        <ele>1311.86</ele>
        <time>2012-09-16T13:55:37Z</time>
      </trkpt>
      <trkpt lat="43.86641" lon="6.61871">
        <ele>1312.34</ele>
        <time>2012-09-16T13:55:54Z</time>
      </trkpt>
      <trkpt lat="43.86643" lon="6.61879">
        <ele>1313.3</ele>
        <time>2012-09-16T13:56:09Z</time>
      </trkpt>
      <trkpt lat="43.86646" lon="6.61895">
        <ele>1314.26</ele>
        <time>2012-09-16T13:56:23Z</time>
      </trkpt>
      <trkpt lat="43.86648" lon="6.61913">
        <ele>1315.7</ele>
        <time>2012-09-16T13:56:38Z</time>
      </trkpt>
      <trkpt lat="43.86651" lon="6.61931">
        <ele>1316.18</ele>
        <time>2012-09-16T13:56:52Z</time>
      </trkpt>
      <trkpt lat="43.86654" lon="6.61952">
        <ele>1317.14</ele>
        <time>2012-09-16T13:57:09Z</time>
      </trkpt>
      <trkpt lat="43.86655" lon="6.61972">
        <ele>1318.1</ele>
        <time>2012-09-16T13:57:26Z</time>
      </trkpt>
      <trkpt lat="43.86656" lon="6.61996">
        <ele>1319.07</ele>
        <time>2012-09-16T13:57:44Z</time>
      </trkpt>
      <trkpt lat="43.86658" lon="6.62015">
        <ele>1320.03</ele>
        <time>2012-09-16T13:58:00Z</time>
      </trkpt>
      <trkpt lat="43.8666" lon="6.62034">
        <ele>1320.99</ele>
        <time>2012-09-16T13:58:17Z</time>
      </trkpt>
      <trkpt lat="43.86661" lon="6.62058">
        <ele>1321.95</ele>
        <time>2012-09-16T13:58:34Z</time>
      </trkpt>
      <trkpt lat="43.86662" lon="6.62073">
        <ele>1322.43</ele>
        <time>2012-09-16T13:58:49Z</time>
      </trkpt>
      <trkpt lat="43.86662" lon="6.62074">
        <ele>1322.91</ele>
        <time>2012-09-16T13:59:10Z</time>
      </trkpt>
      <trkpt lat="43.86662" lon="6.62073">
        <ele>1322.91</ele>
        <time>2012-09-16T13:59:36Z</time>
      </trkpt>
      <trkpt lat="43.86662" lon="6.62075">
        <ele>1323.39</ele>
        <time>2012-09-16T14:00:05Z</time>
      </trkpt>
      <trkpt lat="43.86662" lon="6.62075">
        <ele>1323.39</ele>
        <time>2012-09-16T14:00:34Z</time>
      </trkpt>
      <trkpt lat="43.86663" lon="6.62075">
        <ele>1323.39</ele>
        <time>2012-09-16T14:01:00Z</time>
      </trkpt>
      <trkpt lat="43.86663" lon="6.62076">
        <ele>1323.39</ele>
        <time>2012-09-16T14:01:30Z</time>
      </trkpt>
      <trkpt lat="43.86662" lon="6.62075">
        <ele>1323.39</ele>
        <time>2012-09-16T14:01:58Z</time>
      </trkpt>
      <trkpt lat="43.86663" lon="6.62076">
        <ele>1324.35</ele>
        <time>2012-09-16T14:02:28Z</time>
      </trkpt>
      <trkpt lat="43.86663" lon="6.62076">
        <ele>1324.35</ele>
        <time>2012-09-16T14:02:58Z</time>
      </trkpt>
      <trkpt lat="43.86663" lon="6.62076">
        <ele>1324.35</ele>
        <time>2012-09-16T14:03:27Z</time>
      </trkpt>
      <trkpt lat="43.86663" lon="6.62076">
        <ele>1324.35</ele>
        <time>2012-09-16T14:03:46Z</time>
      </trkpt>
      <trkpt lat="43.86662" lon="6.62076">
        <ele>1325.31</ele>
        <time>2012-09-16T14:04:17Z</time>
      </trkpt>
      <trkpt lat="43.86662" lon="6.62076">
        <ele>1324.83</ele>
        <time>2012-09-16T14:04:40Z</time>
      </trkpt>
      <trkpt lat="43.86662" lon="6.62077">
        <ele>1325.31</ele>
        <time>2012-09-16T14:05:10Z</time>
      </trkpt>
      <trkpt lat="43.86667" lon="6.62091">
        <ele>1325.8</ele>
        <time>2012-09-16T14:05:24Z</time>
      </trkpt>
      <trkpt lat="43.86671" lon="6.62115">
        <ele>1325.31</ele>
        <time>2012-09-16T14:05:42Z</time>
      </trkpt>
      <trkpt lat="43.86674" lon="6.62128">
        <ele>1325.8</ele>
        <time>2012-09-16T14:05:52Z</time>
      </trkpt>
      <trkpt lat="43.86678" lon="6.62159">
        <ele>1326.28</ele>
        <time>2012-09-16T14:06:12Z</time>
      </trkpt>
      <trkpt lat="43.86685" lon="6.62181">
        <ele>1326.28</ele>
        <time>2012-09-16T14:06:28Z</time>
      </trkpt>
      <trkpt lat="43.8669" lon="6.62203">
        <ele>1326.28</ele>
        <time>2012-09-16T14:06:43Z</time>
      </trkpt>
      <trkpt lat="43.8669" lon="6.62206">
        <ele>1326.76</ele>
        <time>2012-09-16T14:06:45Z</time>
      </trkpt>
      <trkpt lat="43.86686" lon="6.62227">
        <ele>1327.24</ele>
        <time>2012-09-16T14:07:00Z</time>
      </trkpt>
      <trkpt lat="43.86684" lon="6.62253">
        <ele>1328.2</ele>
        <time>2012-09-16T14:07:16Z</time>
      </trkpt>
      <trkpt lat="43.86683" lon="6.62265">
        <ele>1328.2</ele>
        <time>2012-09-16T14:07:24Z</time>
      </trkpt>
      <trkpt lat="43.86683" lon="6.62288">
        <ele>1329.16</ele>
        <time>2012-09-16T14:07:40Z</time>
      </trkpt>
      <trkpt lat="43.86684" lon="6.62287">
        <ele>1328.2</ele>
        <time>2012-09-16T14:07:54Z</time>
      </trkpt>
      <trkpt lat="43.86683" lon="6.62288">
        <ele>1329.16</ele>
        <time>2012-09-16T14:08:13Z</time>
      </trkpt>
      <trkpt lat="43.86689" lon="6.62298">
        <ele>1330.12</ele>
        <time>2012-09-16T14:08:27Z</time>
      </trkpt>
      <trkpt lat="43.86697" lon="6.62297">
        <ele>1329.64</ele>
        <time>2012-09-16T14:08:36Z</time>
      </trkpt>
      <trkpt lat="43.86701" lon="6.62297">
        <ele>1330.12</ele>
        <time>2012-09-16T14:08:39Z</time>
      </trkpt>
      <trkpt lat="43.86703" lon="6.62299">
        <ele>1330.12</ele>
        <time>2012-09-16T14:08:41Z</time>
      </trkpt>
      <trkpt lat="43.86702" lon="6.62303">
        <ele>1329.64</ele>
        <time>2012-09-16T14:08:45Z</time>
      </trkpt>
      <trkpt lat="43.86696" lon="6.62328">
        <ele>1330.12</ele>
        <time>2012-09-16T14:09:04Z</time>
      </trkpt>
      <trkpt lat="43.86689" lon="6.62358">
        <ele>1329.64</ele>
        <time>2012-09-16T14:09:25Z</time>
      </trkpt>
      <trkpt lat="43.86681" lon="6.62384">
        <ele>1330.6</ele>
        <time>2012-09-16T14:09:43Z</time>
      </trkpt>
      <trkpt lat="43.86676" lon="6.62398">
        <ele>1331.08</ele>
        <time>2012-09-16T14:09:57Z</time>
      </trkpt>
      <trkpt lat="43.86668" lon="6.62424">
        <ele>1331.56</ele>
        <time>2012-09-16T14:10:14Z</time>
      </trkpt>
      <trkpt lat="43.8666" lon="6.62451">
        <ele>1332.04</ele>
        <time>2012-09-16T14:10:31Z</time>
      </trkpt>
      <trkpt lat="43.86653" lon="6.62474">
        <ele>1332.52</ele>
        <time>2012-09-16T14:10:47Z</time>
      </trkpt>
      <trkpt lat="43.86646" lon="6.62498">
        <ele>1333.49</ele>
        <time>2012-09-16T14:11:05Z</time>
      </trkpt>
      <trkpt lat="43.86638" lon="6.62524">
        <ele>1334.45</ele>
        <time>2012-09-16T14:11:23Z</time>
      </trkpt>
      <trkpt lat="43.86632" lon="6.62545">
        <ele>1335.41</ele>
        <time>2012-09-16T14:11:40Z</time>
      </trkpt>
      <trkpt lat="43.86627" lon="6.62568">
        <ele>1335.89</ele>
        <time>2012-09-16T14:11:57Z</time>
      </trkpt>
      <trkpt lat="43.86622" lon="6.62586">
        <ele>1336.37</ele>
        <time>2012-09-16T14:12:12Z</time>
      </trkpt>
      <trkpt lat="43.86617" lon="6.62606">
        <ele>1337.33</ele>
        <time>2012-09-16T14:12:27Z</time>
      </trkpt>
      <trkpt lat="43.86611" lon="6.62626">
        <ele>1337.81</ele>
        <time>2012-09-16T14:12:42Z</time>
      </trkpt>
      <trkpt lat="43.86611" lon="6.62629">
        <ele>1338.29</ele>
        <time>2012-09-16T14:12:56Z</time>
      </trkpt>
      <trkpt lat="43.8661" lon="6.62635">
        <ele>1338.29</ele>
        <time>2012-09-16T14:13:14Z</time>
      </trkpt>
      <trkpt lat="43.86608" lon="6.62646">
        <ele>1338.77</ele>
        <time>2012-09-16T14:13:23Z</time>
      </trkpt>
      <trkpt lat="43.8661" lon="6.62658">
        <ele>1340.7</ele>
        <time>2012-09-16T14:13:38Z</time>
      </trkpt>
      <trkpt lat="43.8661" lon="6.62666">
        <ele>1342.14</ele>
        <time>2012-09-16T14:13:52Z</time>
      </trkpt>
      <trkpt lat="43.86609" lon="6.62669">
        <ele>1342.62</ele>
        <time>2012-09-16T14:14:07Z</time>
      </trkpt>
      <trkpt lat="43.866" lon="6.62685">
        <ele>1342.62</ele>
        <time>2012-09-16T14:14:23Z</time>
      </trkpt>
      <trkpt lat="43.86595" lon="6.62707">
        <ele>1343.1</ele>
        <time>2012-09-16T14:14:41Z</time>
      </trkpt>
      <trkpt lat="43.86592" lon="6.62729">
        <ele>1344.06</ele>
        <time>2012-09-16T14:14:56Z</time>
      </trkpt>
      <trkpt lat="43.8659" lon="6.62742">
        <ele>1343.58</ele>
        <time>2012-09-16T14:15:04Z</time>
      </trkpt>
      <trkpt lat="43.86588" lon="6.62763">
        <ele>1344.54</ele>
        <time>2012-09-16T14:15:20Z</time>
      </trkpt>
      <trkpt lat="43.86588" lon="6.62781">
        <ele>1345.5</ele>
        <time>2012-09-16T14:15:33Z</time>
      </trkpt>
      <trkpt lat="43.86584" lon="6.62808">
        <ele>1346.46</ele>
        <time>2012-09-16T14:15:51Z</time>
      </trkpt>
      <trkpt lat="43.86578" lon="6.62834">
        <ele>1347.43</ele>
        <time>2012-09-16T14:16:09Z</time>
      </trkpt>
      <trkpt lat="43.86574" lon="6.62857">
        <ele>1348.87</ele>
        <time>2012-09-16T14:16:26Z</time>
      </trkpt>
      <trkpt lat="43.86569" lon="6.62875">
        <ele>1348.39</ele>
        <time>2012-09-16T14:16:43Z</time>
      </trkpt>
      <trkpt lat="43.86567" lon="6.62895">
        <ele>1349.35</ele>
        <time>2012-09-16T14:16:59Z</time>
      </trkpt>
      <trkpt lat="43.86563" lon="6.6291">
        <ele>1351.27</ele>
        <time>2012-09-16T14:17:12Z</time>
      </trkpt>
      <trkpt lat="43.86562" lon="6.6293">
        <ele>1352.23</ele>
        <time>2012-09-16T14:17:27Z</time>
      </trkpt>
      <trkpt lat="43.86559" lon="6.62953">
        <ele>1353.19</ele>
        <time>2012-09-16T14:17:44Z</time>
      </trkpt>
      <trkpt lat="43.86558" lon="6.62959">
        <ele>1353.67</ele>
        <time>2012-09-16T14:17:49Z</time>
      </trkpt>
      <trkpt lat="43.86558" lon="6.62963">
        <ele>1353.67</ele>
        <time>2012-09-16T14:17:52Z</time>
      </trkpt>
      <trkpt lat="43.86557" lon="6.62975">
        <ele>1355.12</ele>
        <time>2012-09-16T14:18:01Z</time>
      </trkpt>
      <trkpt lat="43.86554" lon="6.62995">
        <ele>1356.08</ele>
        <time>2012-09-16T14:18:18Z</time>
      </trkpt>
      <trkpt lat="43.86551" lon="6.63013">
        <ele>1357.04</ele>
        <time>2012-09-16T14:18:32Z</time>
      </trkpt>
      <trkpt lat="43.86546" lon="6.63032">
        <ele>1358</ele>
        <time>2012-09-16T14:18:47Z</time>
      </trkpt>
      <trkpt lat="43.86546" lon="6.63035">
        <ele>1358</ele>
        <time>2012-09-16T14:18:49Z</time>
      </trkpt>
      <trkpt lat="43.86541" lon="6.63049">
        <ele>1358.48</ele>
        <time>2012-09-16T14:19:05Z</time>
      </trkpt>
      <trkpt lat="43.86538" lon="6.63055">
        <ele>1360.88</ele>
        <time>2012-09-16T14:19:15Z</time>
      </trkpt>
      <trkpt lat="43.8654" lon="6.63071">
        <ele>1362.33</ele>
        <time>2012-09-16T14:19:29Z</time>
      </trkpt>
      <trkpt lat="43.86542" lon="6.63082">
        <ele>1362.81</ele>
        <time>2012-09-16T14:19:38Z</time>
      </trkpt>
      <trkpt lat="43.86543" lon="6.63087">
        <ele>1363.29</ele>
        <time>2012-09-16T14:19:43Z</time>
      </trkpt>
      <trkpt lat="43.86543" lon="6.63102">
        <ele>1363.29</ele>
        <time>2012-09-16T14:19:54Z</time>
      </trkpt>
      <trkpt lat="43.86546" lon="6.63115">
        <ele>1364.25</ele>
        <time>2012-09-16T14:20:08Z</time>
      </trkpt>
      <trkpt lat="43.86541" lon="6.63136">
        <ele>1364.25</ele>
        <time>2012-09-16T14:20:25Z</time>
      </trkpt>
      <trkpt lat="43.86531" lon="6.63144">
        <ele>1363.77</ele>
        <time>2012-09-16T14:20:41Z</time>
      </trkpt>
      <trkpt lat="43.86527" lon="6.63165">
        <ele>1364.25</ele>
        <time>2012-09-16T14:20:59Z</time>
      </trkpt>
      <trkpt lat="43.86527" lon="6.63165">
        <ele>1364.25</ele>
        <time>2012-09-16T14:21:15Z</time>
      </trkpt>
      <trkpt lat="43.86528" lon="6.63164">
        <ele>1364.25</ele>
        <time>2012-09-16T14:21:39Z</time>
      </trkpt>
    </trkseg>
  </trk>
</gpx>